sensor_id;sensor_type;location;lat;lon;timestamp;P1;durP1;ratioP1;P2;durP2;ratioP2
71790;SDS011;59638;52.126;5.434;2023-12-07T00:01:23;7.00;;;1.60;;
71790;SDS011;59638;52.126;5.434;2023-12-07T00:03:50;3.80;;;1.58;;
71790;SDS011;59638;52.126;5.434;2023-12-07T00:06:16;3.90;;;1.85;;
71790;SDS011;59638;52.126;5.434;2023-12-07T00:08:43;3.53;;;1.48;;
71790;SDS011;59638;52.126;5.434;2023-12-07T00:11:09;5.37;;;2.70;;
71790;SDS011;59638;52.126;5.434;2023-12-07T00:13:36;8.13;;;1.73;;
71790;SDS011;59638;52.126;5.434;2023-12-07T00:16:03;4.13;;;2.55;;
71790;SDS011;59638;52.126;5.434;2023-12-07T00:18:29;3.38;;;1.92;;
71790;SDS011;59638;52.126;5.434;2023-12-07T00:20:56;8.68;;;1.77;;
71790;SDS011;59638;52.126;5.434;2023-12-07T00:23:22;5.17;;;2.00;;
71790;SDS011;59638;52.126;5.434;2023-12-07T00:25:49;5.28;;;2.22;;
71790;SDS011;59638;52.126;5.434;2023-12-07T00:28:17;3.47;;;1.60;;
71790;SDS011;59638;52.126;5.434;2023-12-07T00:30:44;5.93;;;2.60;;
71790;SDS011;59638;52.126;5.434;2023-12-07T00:33:10;5.00;;;2.63;;
71790;SDS011;59638;52.126;5.434;2023-12-07T00:35:36;6.27;;;2.53;;
71790;SDS011;59638;52.126;5.434;2023-12-07T00:38:03;4.78;;;2.28;;
71790;SDS011;59638;52.126;5.434;2023-12-07T00:40:29;4.63;;;2.35;;
71790;SDS011;59638;52.126;5.434;2023-12-07T00:42:56;7.05;;;3.28;;
71790;SDS011;59638;52.126;5.434;2023-12-07T00:45:23;8.55;;;2.47;;
71790;SDS011;59638;52.126;5.434;2023-12-07T00:47:50;4.13;;;1.87;;
71790;SDS011;59638;52.126;5.434;2023-12-07T00:50:17;6.32;;;2.75;;
71790;SDS011;59638;52.126;5.434;2023-12-07T00:52:43;3.45;;;2.25;;
71790;SDS011;59638;52.126;5.434;2023-12-07T00:55:10;4.13;;;1.80;;
71790;SDS011;59638;52.126;5.434;2023-12-07T00:57:38;4.00;;;2.47;;
71790;SDS011;59638;52.126;5.434;2023-12-07T01:00:05;8.90;;;3.03;;
71790;SDS011;59638;52.126;5.434;2023-12-07T01:02:32;6.57;;;2.13;;
71790;SDS011;59638;52.126;5.434;2023-12-07T01:04:58;6.90;;;2.88;;
71790;SDS011;59638;52.126;5.434;2023-12-07T01:07:25;6.10;;;2.60;;
71790;SDS011;59638;52.126;5.434;2023-12-07T01:09:51;6.43;;;2.28;;
71790;SDS011;59638;52.126;5.434;2023-12-07T01:12:18;3.40;;;2.80;;
71790;SDS011;59638;52.126;5.434;2023-12-07T01:14:44;3.42;;;2.08;;
71790;SDS011;59638;52.126;5.434;2023-12-07T01:17:11;4.90;;;2.17;;
71790;SDS011;59638;52.126;5.434;2023-12-07T01:19:37;6.07;;;2.55;;
71790;SDS011;59638;52.126;5.434;2023-12-07T01:22:04;6.80;;;2.10;;
71790;SDS011;59638;52.126;5.434;2023-12-07T01:24:30;14.73;;;2.40;;
71790;SDS011;59638;52.126;5.434;2023-12-07T01:26:57;3.58;;;2.78;;
71790;SDS011;59638;52.126;5.434;2023-12-07T01:29:24;3.72;;;2.00;;
71790;SDS011;59638;52.126;5.434;2023-12-07T01:31:51;4.60;;;1.75;;
71790;SDS011;59638;52.126;5.434;2023-12-07T01:34:17;4.00;;;1.67;;
71790;SDS011;59638;52.126;5.434;2023-12-07T01:36:45;8.50;;;2.57;;
71790;SDS011;59638;52.126;5.434;2023-12-07T01:39:12;4.03;;;1.63;;
71790;SDS011;59638;52.126;5.434;2023-12-07T01:41:39;7.10;;;2.72;;
71790;SDS011;59638;52.126;5.434;2023-12-07T01:44:06;3.40;;;2.20;;
71790;SDS011;59638;52.126;5.434;2023-12-07T01:46:33;2.40;;;1.90;;
71790;SDS011;59638;52.126;5.434;2023-12-07T01:49:00;3.97;;;2.20;;
71790;SDS011;59638;52.126;5.434;2023-12-07T01:51:28;4.28;;;1.67;;
71790;SDS011;59638;52.126;5.434;2023-12-07T01:53:54;4.25;;;2.05;;
71790;SDS011;59638;52.126;5.434;2023-12-07T01:56:21;4.18;;;1.83;;
71790;SDS011;59638;52.126;5.434;2023-12-07T01:58:51;3.65;;;1.98;;
71790;SDS011;59638;52.126;5.434;2023-12-07T02:01:17;4.00;;;2.10;;
71790;SDS011;59638;52.126;5.434;2023-12-07T02:03:44;3.15;;;1.95;;
71790;SDS011;59638;52.126;5.434;2023-12-07T02:06:11;5.30;;;2.65;;
71790;SDS011;59638;52.126;5.434;2023-12-07T02:08:39;4.10;;;2.17;;
71790;SDS011;59638;52.126;5.434;2023-12-07T02:11:08;5.72;;;1.90;;
71790;SDS011;59638;52.126;5.434;2023-12-07T02:13:39;3.73;;;1.87;;
71790;SDS011;59638;52.126;5.434;2023-12-07T02:16:13;6.30;;;1.95;;
71790;SDS011;59638;52.126;5.434;2023-12-07T02:18:59;4.13;;;2.05;;
71790;SDS011;59638;52.126;5.434;2023-12-07T02:21:37;3.47;;;1.95;;
71790;SDS011;59638;52.126;5.434;2023-12-07T02:24:06;4.65;;;1.25;;
71790;SDS011;59638;52.126;5.434;2023-12-07T02:26:34;3.27;;;2.27;;
71790;SDS011;59638;52.126;5.434;2023-12-07T02:29:01;5.93;;;1.30;;
71790;SDS011;59638;52.126;5.434;2023-12-07T02:31:27;4.25;;;1.27;;
71790;SDS011;59638;52.126;5.434;2023-12-07T02:33:54;3.63;;;2.17;;
71790;SDS011;59638;52.126;5.434;2023-12-07T02:36:22;3.92;;;2.38;;
71790;SDS011;59638;52.126;5.434;2023-12-07T02:38:50;2.70;;;1.77;;
71790;SDS011;59638;52.126;5.434;2023-12-07T02:41:18;2.92;;;1.90;;
71790;SDS011;59638;52.126;5.434;2023-12-07T02:43:46;4.30;;;2.42;;
71790;SDS011;59638;52.126;5.434;2023-12-07T02:46:13;4.47;;;1.95;;
71790;SDS011;59638;52.126;5.434;2023-12-07T02:48:39;2.72;;;1.63;;
71790;SDS011;59638;52.126;5.434;2023-12-07T02:51:06;2.77;;;1.73;;
71790;SDS011;59638;52.126;5.434;2023-12-07T02:53:33;4.25;;;1.85;;
71790;SDS011;59638;52.126;5.434;2023-12-07T02:56:00;3.42;;;1.80;;
71790;SDS011;59638;52.126;5.434;2023-12-07T02:58:26;3.22;;;1.90;;
71790;SDS011;59638;52.126;5.434;2023-12-07T03:00:53;4.57;;;1.60;;
71790;SDS011;59638;52.126;5.434;2023-12-07T03:03:19;2.63;;;1.77;;
71790;SDS011;59638;52.126;5.434;2023-12-07T03:05:46;6.13;;;2.10;;
71790;SDS011;59638;52.126;5.434;2023-12-07T03:08:12;4.72;;;1.70;;
71790;SDS011;59638;52.126;5.434;2023-12-07T03:10:39;2.28;;;1.35;;
71790;SDS011;59638;52.126;5.434;2023-12-07T03:13:05;1.92;;;1.23;;
71790;SDS011;59638;52.126;5.434;2023-12-07T03:15:32;4.37;;;2.37;;
71790;SDS011;59638;52.126;5.434;2023-12-07T03:17:58;6.85;;;2.28;;
71790;SDS011;59638;52.126;5.434;2023-12-07T03:20:25;5.45;;;2.17;;
71790;SDS011;59638;52.126;5.434;2023-12-07T03:22:51;4.93;;;1.40;;
71790;SDS011;59638;52.126;5.434;2023-12-07T03:25:18;5.40;;;1.90;;
71790;SDS011;59638;52.126;5.434;2023-12-07T03:27:44;6.13;;;1.63;;
71790;SDS011;59638;52.126;5.434;2023-12-07T03:30:11;5.97;;;1.88;;
71790;SDS011;59638;52.126;5.434;2023-12-07T03:32:38;4.13;;;1.77;;
71790;SDS011;59638;52.126;5.434;2023-12-07T03:35:04;6.03;;;2.08;;
71790;SDS011;59638;52.126;5.434;2023-12-07T03:37:31;2.20;;;1.13;;
71790;SDS011;59638;52.126;5.434;2023-12-07T03:39:58;4.00;;;2.53;;
71790;SDS011;59638;52.126;5.434;2023-12-07T03:42:24;9.32;;;1.15;;
71790;SDS011;59638;52.126;5.434;2023-12-07T03:45:10;2.95;;;1.60;;
71790;SDS011;59638;52.126;5.434;2023-12-07T03:47:37;2.47;;;1.50;;
71790;SDS011;59638;52.126;5.434;2023-12-07T03:50:04;3.67;;;1.45;;
71790;SDS011;59638;52.126;5.434;2023-12-07T03:52:30;3.70;;;1.57;;
71790;SDS011;59638;52.126;5.434;2023-12-07T03:54:57;3.05;;;1.23;;
71790;SDS011;59638;52.126;5.434;2023-12-07T03:57:24;4.20;;;1.55;;
71790;SDS011;59638;52.126;5.434;2023-12-07T03:59:50;5.03;;;1.55;;
71790;SDS011;59638;52.126;5.434;2023-12-07T04:02:18;8.30;;;2.35;;
71790;SDS011;59638;52.126;5.434;2023-12-07T04:04:45;6.93;;;2.23;;
71790;SDS011;59638;52.126;5.434;2023-12-07T04:07:11;5.00;;;2.55;;
71790;SDS011;59638;52.126;5.434;2023-12-07T04:09:38;7.10;;;4.00;;
71790;SDS011;59638;52.126;5.434;2023-12-07T04:12:04;17.75;;;3.75;;
71790;SDS011;59638;52.126;5.434;2023-12-07T04:14:31;6.00;;;2.90;;
71790;SDS011;59638;52.126;5.434;2023-12-07T04:16:57;4.20;;;2.20;;
71790;SDS011;59638;52.126;5.434;2023-12-07T04:19:24;2.60;;;1.90;;
71790;SDS011;59638;52.126;5.434;2023-12-07T04:21:50;14.75;;;3.15;;
71790;SDS011;59638;52.126;5.434;2023-12-07T04:24:17;14.10;;;3.63;;
71790;SDS011;59638;52.126;5.434;2023-12-07T04:26:43;9.70;;;2.90;;
71790;SDS011;59638;52.126;5.434;2023-12-07T04:29:10;7.83;;;2.67;;
71790;SDS011;59638;52.126;5.434;2023-12-07T04:31:36;10.95;;;4.55;;
71790;SDS011;59638;52.126;5.434;2023-12-07T04:34:03;9.05;;;4.47;;
71790;SDS011;59638;52.126;5.434;2023-12-07T04:36:29;4.45;;;2.80;;
71790;SDS011;59638;52.126;5.434;2023-12-07T04:38:56;5.90;;;4.05;;
71790;SDS011;59638;52.126;5.434;2023-12-07T04:41:22;5.87;;;3.40;;
71790;SDS011;59638;52.126;5.434;2023-12-07T04:43:49;6.53;;;3.78;;
71790;SDS011;59638;52.126;5.434;2023-12-07T04:46:15;5.40;;;3.38;;
71790;SDS011;59638;52.126;5.434;2023-12-07T04:48:43;6.32;;;3.38;;
71790;SDS011;59638;52.126;5.434;2023-12-07T04:51:10;5.93;;;2.95;;
71790;SDS011;59638;52.126;5.434;2023-12-07T04:53:36;6.63;;;4.37;;
71790;SDS011;59638;52.126;5.434;2023-12-07T04:56:03;5.07;;;2.40;;
71790;SDS011;59638;52.126;5.434;2023-12-07T04:58:29;3.95;;;2.55;;
71790;SDS011;59638;52.126;5.434;2023-12-07T05:00:56;17.55;;;3.38;;
71790;SDS011;59638;52.126;5.434;2023-12-07T05:03:22;5.85;;;2.20;;
71790;SDS011;59638;52.126;5.434;2023-12-07T05:05:49;3.07;;;2.13;;
71790;SDS011;59638;52.126;5.434;2023-12-07T05:08:16;3.90;;;2.60;;
71790;SDS011;59638;52.126;5.434;2023-12-07T05:10:44;2.63;;;1.77;;
71790;SDS011;59638;52.126;5.434;2023-12-07T05:13:10;3.42;;;2.60;;
71790;SDS011;59638;52.126;5.434;2023-12-07T05:15:37;9.30;;;3.25;;
71790;SDS011;59638;52.126;5.434;2023-12-07T05:18:04;7.23;;;2.77;;
71790;SDS011;59638;52.126;5.434;2023-12-07T05:20:30;9.38;;;2.85;;
71790;SDS011;59638;52.126;5.434;2023-12-07T05:22:57;3.83;;;2.58;;
71790;SDS011;59638;52.126;5.434;2023-12-07T05:25:23;6.55;;;3.55;;
71790;SDS011;59638;52.126;5.434;2023-12-07T05:27:50;3.80;;;2.53;;
71790;SDS011;59638;52.126;5.434;2023-12-07T05:30:16;3.93;;;2.40;;
71790;SDS011;59638;52.126;5.434;2023-12-07T05:32:43;13.43;;;3.47;;
71790;SDS011;59638;52.126;5.434;2023-12-07T05:35:10;4.65;;;2.60;;
71790;SDS011;59638;52.126;5.434;2023-12-07T05:37:36;3.58;;;2.33;;
71790;SDS011;59638;52.126;5.434;2023-12-07T05:40:03;7.60;;;2.30;;
71790;SDS011;59638;52.126;5.434;2023-12-07T05:42:31;6.60;;;2.70;;
71790;SDS011;59638;52.126;5.434;2023-12-07T05:44:58;10.95;;;2.70;;
71790;SDS011;59638;52.126;5.434;2023-12-07T05:47:26;5.15;;;2.63;;
71790;SDS011;59638;52.126;5.434;2023-12-07T05:49:52;6.43;;;2.25;;
71790;SDS011;59638;52.126;5.434;2023-12-07T05:52:19;4.05;;;2.92;;
71790;SDS011;59638;52.126;5.434;2023-12-07T05:54:45;6.63;;;3.13;;
71790;SDS011;59638;52.126;5.434;2023-12-07T05:57:14;3.65;;;2.58;;
71790;SDS011;59638;52.126;5.434;2023-12-07T05:59:41;6.03;;;2.85;;
71790;SDS011;59638;52.126;5.434;2023-12-07T06:02:09;10.65;;;2.78;;
71790;SDS011;59638;52.126;5.434;2023-12-07T06:04:35;13.88;;;3.10;;
71790;SDS011;59638;52.126;5.434;2023-12-07T06:07:02;4.87;;;2.30;;
71790;SDS011;59638;52.126;5.434;2023-12-07T06:09:29;17.98;;;2.53;;
71790;SDS011;59638;52.126;5.434;2023-12-07T06:11:55;6.15;;;3.15;;
71790;SDS011;59638;52.126;5.434;2023-12-07T06:14:22;6.35;;;2.55;;
71790;SDS011;59638;52.126;5.434;2023-12-07T06:16:51;7.10;;;2.85;;
71790;SDS011;59638;52.126;5.434;2023-12-07T06:19:17;8.27;;;3.20;;
71790;SDS011;59638;52.126;5.434;2023-12-07T06:21:44;19.38;;;3.72;;
71790;SDS011;59638;52.126;5.434;2023-12-07T06:24:10;5.32;;;3.08;;
71790;SDS011;59638;52.126;5.434;2023-12-07T06:26:37;9.57;;;3.45;;
71790;SDS011;59638;52.126;5.434;2023-12-07T06:29:03;10.45;;;2.92;;
71790;SDS011;59638;52.126;5.434;2023-12-07T06:31:30;4.40;;;2.57;;
71790;SDS011;59638;52.126;5.434;2023-12-07T06:33:56;15.48;;;3.67;;
71790;SDS011;59638;52.126;5.434;2023-12-07T06:36:23;8.45;;;3.60;;
71790;SDS011;59638;52.126;5.434;2023-12-07T06:38:50;5.43;;;3.28;;
71790;SDS011;59638;52.126;5.434;2023-12-07T06:41:16;22.52;;;4.25;;
71790;SDS011;59638;52.126;5.434;2023-12-07T06:43:43;14.40;;;4.70;;
71790;SDS011;59638;52.126;5.434;2023-12-07T06:46:11;9.45;;;3.40;;
71790;SDS011;59638;52.126;5.434;2023-12-07T06:48:39;6.65;;;3.35;;
71790;SDS011;59638;52.126;5.434;2023-12-07T06:51:07;9.80;;;3.55;;
71790;SDS011;59638;52.126;5.434;2023-12-07T06:53:33;10.35;;;3.58;;
71790;SDS011;59638;52.126;5.434;2023-12-07T06:56:00;18.53;;;4.20;;
71790;SDS011;59638;52.126;5.434;2023-12-07T06:58:26;7.93;;;3.70;;
71790;SDS011;59638;52.126;5.434;2023-12-07T07:00:53;5.90;;;3.78;;
71790;SDS011;59638;52.126;5.434;2023-12-07T07:03:19;20.38;;;4.45;;
71790;SDS011;59638;52.126;5.434;2023-12-07T07:05:46;3.80;;;3.10;;
71790;SDS011;59638;52.126;5.434;2023-12-07T07:08:12;5.87;;;3.50;;
71790;SDS011;59638;52.126;5.434;2023-12-07T07:10:39;8.77;;;3.55;;
71790;SDS011;59638;52.126;5.434;2023-12-07T07:13:05;5.60;;;3.65;;
71790;SDS011;59638;52.126;5.434;2023-12-07T07:15:32;13.63;;;3.55;;
71790;SDS011;59638;52.126;5.434;2023-12-07T07:18:00;11.70;;;3.83;;
71790;SDS011;59638;52.126;5.434;2023-12-07T07:20:27;12.67;;;4.47;;
71790;SDS011;59638;52.126;5.434;2023-12-07T07:22:53;9.75;;;3.70;;
71790;SDS011;59638;52.126;5.434;2023-12-07T07:25:20;13.95;;;4.40;;
71790;SDS011;59638;52.126;5.434;2023-12-07T07:27:46;7.63;;;3.15;;
71790;SDS011;59638;52.126;5.434;2023-12-07T07:30:13;6.97;;;2.83;;
71790;SDS011;59638;52.126;5.434;2023-12-07T07:32:40;4.13;;;3.47;;
71790;SDS011;59638;52.126;5.434;2023-12-07T07:35:07;14.50;;;4.03;;
71790;SDS011;59638;52.126;5.434;2023-12-07T07:37:34;9.65;;;3.20;;
71790;SDS011;59638;52.126;5.434;2023-12-07T07:40:00;12.70;;;3.13;;
71790;SDS011;59638;52.126;5.434;2023-12-07T07:42:33;26.58;;;4.03;;
71790;SDS011;59638;52.126;5.434;2023-12-07T07:44:59;7.03;;;3.03;;
71790;SDS011;59638;52.126;5.434;2023-12-07T07:47:26;4.45;;;3.80;;
71790;SDS011;59638;52.126;5.434;2023-12-07T07:49:53;6.47;;;3.78;;
71790;SDS011;59638;52.126;5.434;2023-12-07T07:52:19;8.32;;;2.53;;
71790;SDS011;59638;52.126;5.434;2023-12-07T07:54:46;16.15;;;3.20;;
71790;SDS011;59638;52.126;5.434;2023-12-07T07:57:12;3.60;;;2.77;;
71790;SDS011;59638;52.126;5.434;2023-12-07T07:59:39;13.80;;;2.45;;
71790;SDS011;59638;52.126;5.434;2023-12-07T08:02:05;4.65;;;3.00;;
71790;SDS011;59638;52.126;5.434;2023-12-07T08:04:32;5.22;;;2.92;;
71790;SDS011;59638;52.126;5.434;2023-12-07T08:06:58;7.70;;;3.15;;
71790;SDS011;59638;52.126;5.434;2023-12-07T08:09:25;6.83;;;2.87;;
71790;SDS011;59638;52.126;5.434;2023-12-07T08:11:52;11.23;;;2.38;;
71790;SDS011;59638;52.126;5.434;2023-12-07T08:14:18;5.32;;;2.15;;
71790;SDS011;59638;52.126;5.434;2023-12-07T08:16:45;8.00;;;2.60;;
71790;SDS011;59638;52.126;5.434;2023-12-07T08:19:13;7.43;;;3.03;;
71790;SDS011;59638;52.126;5.434;2023-12-07T08:21:40;15.67;;;3.23;;
71790;SDS011;59638;52.126;5.434;2023-12-07T08:24:06;3.63;;;2.30;;
71790;SDS011;59638;52.126;5.434;2023-12-07T08:26:32;7.22;;;3.22;;
71790;SDS011;59638;52.126;5.434;2023-12-07T08:28:59;10.00;;;3.20;;
71790;SDS011;59638;52.126;5.434;2023-12-07T08:31:25;7.97;;;3.78;;
71790;SDS011;59638;52.126;5.434;2023-12-07T08:33:52;9.93;;;3.57;;
71790;SDS011;59638;52.126;5.434;2023-12-07T08:36:19;6.20;;;3.28;;
71790;SDS011;59638;52.126;5.434;2023-12-07T08:38:45;5.55;;;3.60;;
71790;SDS011;59638;52.126;5.434;2023-12-07T08:41:12;12.73;;;3.20;;
71790;SDS011;59638;52.126;5.434;2023-12-07T08:43:40;21.00;;;4.20;;
71790;SDS011;59638;52.126;5.434;2023-12-07T08:46:06;9.17;;;4.30;;
71790;SDS011;59638;52.126;5.434;2023-12-07T08:48:33;29.33;;;3.83;;
71790;SDS011;59638;52.126;5.434;2023-12-07T08:51:03;15.57;;;4.03;;
71790;SDS011;59638;52.126;5.434;2023-12-07T08:53:29;5.70;;;3.75;;
71790;SDS011;59638;52.126;5.434;2023-12-07T08:55:56;8.43;;;4.07;;
71790;SDS011;59638;52.126;5.434;2023-12-07T08:58:23;28.23;;;5.87;;
71790;SDS011;59638;52.126;5.434;2023-12-07T09:00:50;26.40;;;5.15;;
71790;SDS011;59638;52.126;5.434;2023-12-07T09:03:16;7.28;;;3.67;;
71790;SDS011;59638;52.126;5.434;2023-12-07T09:05:43;12.23;;;4.45;;
71790;SDS011;59638;52.126;5.434;2023-12-07T09:08:10;8.98;;;4.03;;
71790;SDS011;59638;52.126;5.434;2023-12-07T09:10:36;6.17;;;3.77;;
71790;SDS011;59638;52.126;5.434;2023-12-07T09:13:03;10.10;;;3.83;;
71790;SDS011;59638;52.126;5.434;2023-12-07T09:15:29;11.07;;;4.47;;
71790;SDS011;59638;52.126;5.434;2023-12-07T09:17:55;7.35;;;3.88;;
71790;SDS011;59638;52.126;5.434;2023-12-07T09:20:22;13.60;;;3.85;;
71790;SDS011;59638;52.126;5.434;2023-12-07T09:22:48;9.40;;;4.20;;
71790;SDS011;59638;52.126;5.434;2023-12-07T09:25:15;20.38;;;5.05;;
71790;SDS011;59638;52.126;5.434;2023-12-07T09:27:42;10.30;;;5.10;;
71790;SDS011;59638;52.126;5.434;2023-12-07T09:30:09;6.63;;;3.45;;
71790;SDS011;59638;52.126;5.434;2023-12-07T09:32:38;15.57;;;3.55;;
71790;SDS011;59638;52.126;5.434;2023-12-07T09:35:06;11.20;;;4.10;;
71790;SDS011;59638;52.126;5.434;2023-12-07T09:37:34;6.43;;;3.15;;
71790;SDS011;59638;52.126;5.434;2023-12-07T09:40:01;9.75;;;3.92;;
71790;SDS011;59638;52.126;5.434;2023-12-07T09:42:30;4.03;;;2.22;;
71790;SDS011;59638;52.126;5.434;2023-12-07T09:45:02;37.88;;;4.30;;
71790;SDS011;59638;52.126;5.434;2023-12-07T09:47:30;5.97;;;3.80;;
71790;SDS011;59638;52.126;5.434;2023-12-07T09:50:03;9.63;;;3.40;;
71790;SDS011;59638;52.126;5.434;2023-12-07T09:52:31;6.57;;;3.70;;
71790;SDS011;59638;52.126;5.434;2023-12-07T09:54:58;13.43;;;3.25;;
71790;SDS011;59638;52.126;5.434;2023-12-07T09:57:25;4.55;;;3.00;;
71790;SDS011;59638;52.126;5.434;2023-12-07T09:59:56;6.77;;;3.63;;
71790;SDS011;59638;52.126;5.434;2023-12-07T10:02:22;3.00;;;2.50;;
71790;SDS011;59638;52.126;5.434;2023-12-07T10:05:05;13.27;;;2.58;;
71790;SDS011;59638;52.126;5.434;2023-12-07T10:07:34;5.97;;;2.60;;
71790;SDS011;59638;52.126;5.434;2023-12-07T10:10:02;6.15;;;3.38;;
71790;SDS011;59638;52.126;5.434;2023-12-07T10:12:32;5.03;;;2.27;;
71790;SDS011;59638;52.126;5.434;2023-12-07T10:15:11;6.53;;;2.60;;
71790;SDS011;59638;52.126;5.434;2023-12-07T10:20:18;3.40;;;1.75;;
71790;SDS011;59638;52.126;5.434;2023-12-07T10:23:06;3.92;;;2.17;;
71790;SDS011;59638;52.126;5.434;2023-12-07T10:25:37;3.47;;;2.30;;
71790;SDS011;59638;52.126;5.434;2023-12-07T10:28:06;6.60;;;1.60;;
71790;SDS011;59638;52.126;5.434;2023-12-07T10:30:35;3.53;;;1.90;;
71790;SDS011;59638;52.126;5.434;2023-12-07T10:33:05;5.13;;;2.40;;
71790;SDS011;59638;52.126;5.434;2023-12-07T10:35:38;3.72;;;1.88;;
71790;SDS011;59638;52.126;5.434;2023-12-07T10:38:06;4.83;;;2.07;;
71790;SDS011;59638;52.126;5.434;2023-12-07T10:40:33;4.45;;;2.10;;
71790;SDS011;59638;52.126;5.434;2023-12-07T10:42:59;3.00;;;1.60;;
71790;SDS011;59638;52.126;5.434;2023-12-07T10:45:31;12.93;;;3.17;;
71790;SDS011;59638;52.126;5.434;2023-12-07T10:48:00;4.78;;;2.15;;
71790;SDS011;59638;52.126;5.434;2023-12-07T10:50:31;5.50;;;2.70;;
71790;SDS011;59638;52.126;5.434;2023-12-07T10:53:08;14.68;;;2.35;;
71790;SDS011;59638;52.126;5.434;2023-12-07T10:55:45;22.75;;;2.47;;
71790;SDS011;59638;52.126;5.434;2023-12-07T10:58:16;5.22;;;1.88;;
71790;SDS011;59638;52.126;5.434;2023-12-07T11:00:43;2.72;;;1.50;;
71790;SDS011;59638;52.126;5.434;2023-12-07T11:03:17;5.57;;;2.43;;
71790;SDS011;59638;52.126;5.434;2023-12-07T11:05:45;4.25;;;1.55;;
71790;SDS011;59638;52.126;5.434;2023-12-07T11:08:25;6.63;;;2.13;;
71790;SDS011;59638;52.126;5.434;2023-12-07T11:13:34;2.72;;;1.40;;
71790;SDS011;59638;52.126;5.434;2023-12-07T11:16:03;3.67;;;1.80;;
71790;SDS011;59638;52.126;5.434;2023-12-07T11:18:30;4.57;;;1.98;;
71790;SDS011;59638;52.126;5.434;2023-12-07T11:20:57;5.47;;;2.88;;
71790;SDS011;59638;52.126;5.434;2023-12-07T11:23:25;5.97;;;2.08;;
71790;SDS011;59638;52.126;5.434;2023-12-07T11:25:53;2.78;;;1.65;;
71790;SDS011;59638;52.126;5.434;2023-12-07T11:28:34;4.70;;;2.20;;
71790;SDS011;59638;52.126;5.434;2023-12-07T11:31:08;3.20;;;1.67;;
71790;SDS011;59638;52.126;5.434;2023-12-07T11:33:37;3.78;;;2.38;;
71790;SDS011;59638;52.126;5.434;2023-12-07T11:36:06;5.47;;;1.85;;
71790;SDS011;59638;52.126;5.434;2023-12-07T11:38:39;4.63;;;2.53;;
71790;SDS011;59638;52.126;5.434;2023-12-07T11:41:54;6.30;;;1.73;;
71790;SDS011;59638;52.126;5.434;2023-12-07T11:44:34;3.95;;;2.30;;
71790;SDS011;59638;52.126;5.434;2023-12-07T11:47:03;8.13;;;2.22;;
71790;SDS011;59638;52.126;5.434;2023-12-07T11:49:31;4.97;;;1.98;;
71790;SDS011;59638;52.126;5.434;2023-12-07T11:52:20;6.30;;;2.92;;
71790;SDS011;59638;52.126;5.434;2023-12-07T11:54:47;4.97;;;2.13;;
71790;SDS011;59638;52.126;5.434;2023-12-07T11:57:15;4.20;;;2.08;;
71790;SDS011;59638;52.126;5.434;2023-12-07T11:59:43;4.43;;;3.08;;
71790;SDS011;59638;52.126;5.434;2023-12-07T12:02:11;5.07;;;3.65;;
71790;SDS011;59638;52.126;5.434;2023-12-07T12:04:38;7.45;;;2.28;;
71790;SDS011;59638;52.126;5.434;2023-12-07T12:07:07;23.53;;;3.67;;
71790;SDS011;59638;52.126;5.434;2023-12-07T12:09:34;6.65;;;3.17;;
71790;SDS011;59638;52.126;5.434;2023-12-07T12:12:00;7.20;;;2.80;;
71790;SDS011;59638;52.126;5.434;2023-12-07T12:14:27;9.20;;;3.92;;
71790;SDS011;59638;52.126;5.434;2023-12-07T12:16:54;9.20;;;3.58;;
71790;SDS011;59638;52.126;5.434;2023-12-07T12:19:24;10.93;;;4.23;;
71790;SDS011;59638;52.126;5.434;2023-12-07T12:22:02;8.07;;;4.28;;
71790;SDS011;59638;52.126;5.434;2023-12-07T12:24:33;15.30;;;4.82;;
71790;SDS011;59638;52.126;5.434;2023-12-07T12:27:00;11.00;;;4.00;;
71790;SDS011;59638;52.126;5.434;2023-12-07T12:29:28;14.82;;;4.53;;
71790;SDS011;59638;52.126;5.434;2023-12-07T12:32:00;8.47;;;3.23;;
71790;SDS011;59638;52.126;5.434;2023-12-07T12:34:28;13.07;;;5.10;;
71790;SDS011;59638;52.126;5.434;2023-12-07T12:36:55;8.35;;;4.65;;
71790;SDS011;59638;52.126;5.434;2023-12-07T12:39:26;12.10;;;5.18;;
71790;SDS011;59638;52.126;5.434;2023-12-07T12:41:59;8.98;;;4.35;;
71790;SDS011;59638;52.126;5.434;2023-12-07T12:44:27;11.67;;;4.97;;
71790;SDS011;59638;52.126;5.434;2023-12-07T12:47:02;8.80;;;4.00;;
71790;SDS011;59638;52.126;5.434;2023-12-07T12:49:36;11.40;;;5.55;;
71790;SDS011;59638;52.126;5.434;2023-12-07T12:52:09;10.98;;;4.60;;
71790;SDS011;59638;52.126;5.434;2023-12-07T12:54:37;10.70;;;4.88;;
71790;SDS011;59638;52.126;5.434;2023-12-07T12:57:05;10.57;;;4.40;;
71790;SDS011;59638;52.126;5.434;2023-12-07T12:59:33;10.20;;;5.05;;
71790;SDS011;59638;52.126;5.434;2023-12-07T13:01:59;16.27;;;6.13;;
71790;SDS011;59638;52.126;5.434;2023-12-07T13:04:26;12.38;;;5.15;;
71790;SDS011;59638;52.126;5.434;2023-12-07T13:06:52;16.00;;;6.40;;
71790;SDS011;59638;52.126;5.434;2023-12-07T13:09:19;17.43;;;6.43;;
71790;SDS011;59638;52.126;5.434;2023-12-07T13:11:47;17.38;;;7.47;;
71790;SDS011;59638;52.126;5.434;2023-12-07T13:14:15;14.32;;;6.95;;
71790;SDS011;59638;52.126;5.434;2023-12-07T13:16:43;16.63;;;6.78;;
71790;SDS011;59638;52.126;5.434;2023-12-07T13:19:09;17.38;;;6.45;;
71790;SDS011;59638;52.126;5.434;2023-12-07T13:21:36;12.73;;;6.53;;
71790;SDS011;59638;52.126;5.434;2023-12-07T13:24:02;13.27;;;6.50;;
71790;SDS011;59638;52.126;5.434;2023-12-07T13:26:31;11.55;;;6.43;;
71790;SDS011;59638;52.126;5.434;2023-12-07T13:28:57;9.07;;;6.13;;
71790;SDS011;59638;52.126;5.434;2023-12-07T13:31:24;7.47;;;4.72;;
71790;SDS011;59638;52.126;5.434;2023-12-07T13:33:50;13.40;;;6.10;;
71790;SDS011;59638;52.126;5.434;2023-12-07T13:36:22;12.15;;;6.18;;
71790;SDS011;59638;52.126;5.434;2023-12-07T13:38:52;11.35;;;5.32;;
71790;SDS011;59638;52.126;5.434;2023-12-07T13:41:18;12.93;;;6.82;;
71790;SDS011;59638;52.126;5.434;2023-12-07T13:43:45;13.02;;;5.88;;
71790;SDS011;59638;52.126;5.434;2023-12-07T13:46:14;14.30;;;6.40;;
71790;SDS011;59638;52.126;5.434;2023-12-07T13:48:42;6.95;;;4.72;;
71790;SDS011;59638;52.126;5.434;2023-12-07T13:51:09;10.75;;;6.55;;
71790;SDS011;59638;52.126;5.434;2023-12-07T13:53:36;13.82;;;7.20;;
71790;SDS011;59638;52.126;5.434;2023-12-07T13:56:04;15.38;;;7.47;;
71790;SDS011;59638;52.126;5.434;2023-12-07T13:58:31;9.70;;;4.07;;
71790;SDS011;59638;52.126;5.434;2023-12-07T14:00:58;10.85;;;6.10;;
71790;SDS011;59638;52.126;5.434;2023-12-07T14:03:24;10.88;;;6.80;;
71790;SDS011;59638;52.126;5.434;2023-12-07T14:05:51;12.82;;;6.82;;
71790;SDS011;59638;52.126;5.434;2023-12-07T14:08:18;11.43;;;7.38;;
71790;SDS011;59638;52.126;5.434;2023-12-07T14:10:45;15.13;;;6.97;;
71790;SDS011;59638;52.126;5.434;2023-12-07T14:13:11;13.65;;;6.65;;
71790;SDS011;59638;52.126;5.434;2023-12-07T14:15:38;13.15;;;6.82;;
71790;SDS011;59638;52.126;5.434;2023-12-07T14:18:10;13.68;;;7.20;;
71790;SDS011;59638;52.126;5.434;2023-12-07T14:20:38;11.23;;;6.40;;
71790;SDS011;59638;52.126;5.434;2023-12-07T14:23:27;18.27;;;7.97;;
71790;SDS011;59638;52.126;5.434;2023-12-07T14:25:54;12.55;;;6.38;;
71790;SDS011;59638;52.126;5.434;2023-12-07T14:28:27;19.48;;;8.23;;
71790;SDS011;59638;52.126;5.434;2023-12-07T14:30:56;19.20;;;7.22;;
71790;SDS011;59638;52.126;5.434;2023-12-07T14:33:23;15.40;;;8.23;;
71790;SDS011;59638;52.126;5.434;2023-12-07T14:35:50;18.33;;;7.93;;
71790;SDS011;59638;52.126;5.434;2023-12-07T14:38:17;14.60;;;6.25;;
71790;SDS011;59638;52.126;5.434;2023-12-07T14:40:44;14.15;;;7.07;;
71790;SDS011;59638;52.126;5.434;2023-12-07T14:43:10;16.15;;;7.40;;
71790;SDS011;59638;52.126;5.434;2023-12-07T14:45:37;17.17;;;7.72;;
71790;SDS011;59638;52.126;5.434;2023-12-07T14:48:03;15.27;;;6.97;;
71790;SDS011;59638;52.126;5.434;2023-12-07T14:50:30;14.20;;;6.15;;
71790;SDS011;59638;52.126;5.434;2023-12-07T14:52:57;17.02;;;7.72;;